createdAt,value
2023-01-06T00:01:21.242Z,62.09
2023-01-06T00:06:19.222Z,62.17
2023-01-06T00:11:16.132Z,62.45
2023-01-06T00:16:14.385Z,62.53
2023-01-06T00:21:13.789Z,62.84
2023-01-06T00:26:11.284Z,62.95
2023-01-06T00:31:10.094Z,63.16
2023-01-06T00:36:08.776Z,63.30
2023-01-06T00:41:27.819Z,63.50
2023-01-06T00:46:28.208Z,63.63
2023-01-06T00:51:25.238Z,63.62
2023-01-06T00:56:22.658Z,63.73
2023-01-06T01:01:19.595Z,64.00
2023-01-06T01:06:16.627Z,64.01
2023-01-06T01:11:33.722Z,64.20
2023-01-06T01:16:31.649Z,64.19
2023-01-06T01:21:28.683Z,64.53
2023-01-06T01:26:25.630Z,64.41
2023-01-06T01:31:22.506Z,64.62
2023-01-06T01:36:20.006Z,64.72
2023-01-06T01:41:24.184Z,64.85
2023-01-06T01:46:25.204Z,65.05
2023-01-06T01:51:28.297Z,65.13
2023-01-06T01:56:30.620Z,65.22
2023-01-06T02:01:28.418Z,65.32
2023-01-06T02:06:27.455Z,65.32
2023-01-06T02:11:25.695Z,65.42
2023-01-06T02:16:30.702Z,65.68
2023-01-06T02:21:45.807Z,65.74
2023-01-06T02:27:08.297Z,65.84
2023-01-06T02:32:15.317Z,65.85
2023-01-06T02:37:28.841Z,66.09
2023-01-06T02:42:33.714Z,66.18
2023-01-06T02:47:34.341Z,66.35
2023-01-06T02:52:38.872Z,66.32
2023-01-06T02:57:41.628Z,66.56
2023-01-06T03:02:42.343Z,66.47
2023-01-06T03:07:42.431Z,66.47
2023-01-06T03:12:47.342Z,66.62
2023-01-06T03:17:46.305Z,66.95
2023-01-06T03:22:43.769Z,66.51
2023-01-06T03:27:40.598Z,66.68
2023-01-06T03:32:47.641Z,66.81
2023-01-06T03:37:54.176Z,66.68
2023-01-06T03:43:12.355Z,66.73
2023-01-06T03:48:22.548Z,66.90
2023-01-06T03:53:31.140Z,67.01
2023-01-06T03:58:29.550Z,66.93
2023-01-06T04:03:27.211Z,67.41
2023-01-06T04:08:25.650Z,67.31
2023-01-06T04:13:22.653Z,67.59
2023-01-06T04:18:19.833Z,67.40
2023-01-06T04:23:18.369Z,67.25
2023-01-06T04:28:16.008Z,67.43
2023-01-06T04:33:14.051Z,67.54
2023-01-06T04:38:13.598Z,67.76
2023-01-06T04:43:15.481Z,67.58
2023-01-06T04:48:13.414Z,67.62
2023-01-06T04:53:12.012Z,67.62
2023-01-06T04:58:10.063Z,67.91
2023-01-06T05:03:06.824Z,67.69
2023-01-06T05:08:04.381Z,67.91
2023-01-06T05:13:01.325Z,67.70
2023-01-06T05:17:58.218Z,67.79
2023-01-06T05:22:55.053Z,68.00
2023-01-06T05:27:52.558Z,67.87
2023-01-06T05:32:49.446Z,67.97
2023-01-06T05:37:46.330Z,68.29
2023-01-06T05:42:43.773Z,68.03
2023-01-06T05:47:41.438Z,68.24
2023-01-06T05:52:38.377Z,68.17
2023-01-06T05:57:36.392Z,68.25
2023-01-06T06:02:33.428Z,68.30
2023-01-06T06:07:31.046Z,67.86
2023-01-06T06:12:27.848Z,68.20
2023-01-06T06:17:24.825Z,68.35
2023-01-06T06:22:23.202Z,68.08
2023-01-06T06:27:20.788Z,68.25
2023-01-06T06:32:17.600Z,68.32
2023-01-06T06:37:14.442Z,67.97
2023-01-06T06:42:11.379Z,68.13
2023-01-06T06:47:09.078Z,67.94
2023-01-06T06:52:05.939Z,68.19
2023-01-06T06:57:02.752Z,68.02
2023-01-06T07:01:59.689Z,68.03
2023-01-06T07:07:00.594Z,67.86
2023-01-06T07:11:57.447Z,67.71
2023-01-06T07:16:54.271Z,67.67
2023-01-06T07:21:51.065Z,67.65
2023-01-06T07:26:48.574Z,67.61
2023-01-06T07:31:45.426Z,67.52
2023-01-06T07:36:42.322Z,67.59
2023-01-06T07:41:39.168Z,67.52
2023-01-06T07:46:42.276Z,67.49
2023-01-06T07:51:39.180Z,67.39
2023-01-06T07:56:36.358Z,67.34
2023-01-06T08:01:33.774Z,67.16
2023-01-06T08:06:31.401Z,66.88
2023-01-06T08:11:30.414Z,66.82
2023-01-06T08:16:28.808Z,66.62
2023-01-06T08:21:25.828Z,66.23
2023-01-06T08:26:26.416Z,65.89
2023-01-06T08:31:26.350Z,65.67
2023-01-06T08:36:24.094Z,65.27
2023-01-06T08:41:20.963Z,65.12
2023-01-06T08:46:19.971Z,64.55
2023-01-06T08:51:20.100Z,64.54
2023-01-06T08:56:19.530Z,64.06
2023-01-06T09:01:17.244Z,63.84
2023-01-06T09:06:16.218Z,63.03
2023-01-06T09:11:13.040Z,62.85
2023-01-06T09:16:11.697Z,61.90
2023-01-06T09:21:09.065Z,62.21
2023-01-06T09:26:06.703Z,61.67
2023-01-06T09:31:03.733Z,61.74
2023-01-06T09:36:05.545Z,60.79
2023-01-06T09:41:36.445Z,60.56
2023-01-06T09:46:40.212Z,60.61
2023-01-06T09:51:38.460Z,60.21
2023-01-06T09:56:38.008Z,59.80
2023-01-06T10:01:39.696Z,59.47
2023-01-06T10:06:43.893Z,59.21
2023-01-06T10:11:54.575Z,59.00
2023-01-06T10:17:36.748Z,58.40
2023-01-06T10:22:47.245Z,57.97
2023-01-06T10:27:50.607Z,57.71
2023-01-06T10:32:52.602Z,56.75
2023-01-06T10:37:52.832Z,57.19
2023-01-06T10:43:03.610Z,56.02
2023-01-06T10:48:12.938Z,56.09
2023-01-06T10:53:15.027Z,55.65
2023-01-06T10:58:21.186Z,55.02
2023-01-06T11:03:32.977Z,54.87
2023-01-06T11:08:32.969Z,54.15
2023-01-06T11:13:34.396Z,54.05
2023-01-06T11:18:34.577Z,53.45
2023-01-06T11:23:33.982Z,52.48
2023-01-06T11:28:35.197Z,51.12
2023-01-06T11:33:35.637Z,50.68
2023-01-06T11:38:40.342Z,50.33
2023-01-06T11:43:43.224Z,50.08
2023-01-06T11:48:43.829Z,50.27
2023-01-06T11:53:56.764Z,47.77
2023-01-06T11:59:08.478Z,45.88
2023-01-06T12:04:15.228Z,45.61
2023-01-06T12:09:19.705Z,46.67
2023-01-06T12:14:28.449Z,46.82
2023-01-06T12:19:35.684Z,46.06
2023-01-06T12:24:41.036Z,45.81
2023-01-06T12:29:39.553Z,45.64
2023-01-06T12:34:38.738Z,44.49
2023-01-06T12:39:42.648Z,43.96
2023-01-06T12:44:45.754Z,43.87
2023-01-06T12:49:48.077Z,44.27
2023-01-06T12:54:52.192Z,44.06
2023-01-06T13:00:03.761Z,44.71
2023-01-06T13:05:35.241Z,45.02
2023-01-06T13:10:37.588Z,44.91
2023-01-06T13:15:39.296Z,43.95
2023-01-06T13:20:42.161Z,44.21
2023-01-06T13:25:53.976Z,44.91
2023-01-06T13:31:32.577Z,44.66
2023-01-06T13:36:55.269Z,44.61
2023-01-06T13:41:55.914Z,45.16
2023-01-06T13:46:59.061Z,45.20
2023-01-06T13:51:57.523Z,45.58
2023-01-06T13:57:36.480Z,46.01
2023-01-06T14:03:17.905Z,46.32
2023-01-06T14:08:21.927Z,46.69
2023-01-06T14:13:22.557Z,47.06
2023-01-06T14:18:35.077Z,47.47
2023-01-06T14:23:33.808Z,47.88
2023-01-06T14:28:32.875Z,48.15
2023-01-06T14:33:35.566Z,48.50
2023-01-06T14:38:40.955Z,48.80
2023-01-06T14:43:45.321Z,49.14
2023-01-06T14:48:49.552Z,49.82
2023-01-06T14:53:53.218Z,50.13
2023-01-06T14:58:50.033Z,50.43
2023-01-06T15:03:56.373Z,51.07
2023-01-06T15:08:54.938Z,51.26
2023-01-06T15:13:51.796Z,51.66
2023-01-06T15:18:52.375Z,51.83
2023-01-06T15:23:51.316Z,52.21
2023-01-06T15:29:00.679Z,52.83
2023-01-06T15:34:05.638Z,52.98
2023-01-06T15:39:05.687Z,53.28
2023-01-06T15:44:20.316Z,53.28
2023-01-06T15:49:25.946Z,53.32
2023-01-06T15:54:23.361Z,53.58
2023-01-06T15:59:21.707Z,53.52
2023-01-06T16:04:21.031Z,53.80
2023-01-06T16:09:35.294Z,54.00
2023-01-06T16:14:35.342Z,53.78
2023-01-06T16:19:33.389Z,54.14
2023-01-06T16:24:30.843Z,53.84
2023-01-06T16:29:32.602Z,54.14
2023-01-06T16:34:31.695Z,54.12
2023-01-06T16:39:30.341Z,54.01
2023-01-06T16:44:28.984Z,54.44
2023-01-06T16:49:26.154Z,54.20
2023-01-06T16:54:35.305Z,54.46
2023-01-06T16:59:34.975Z,54.64
2023-01-06T17:04:31.828Z,54.69
2023-01-06T17:09:30.187Z,55.21
2023-01-06T17:14:27.743Z,55.15
2023-01-06T17:19:28.934Z,55.03
2023-01-06T17:24:29.597Z,55.18
2023-01-06T17:29:35.721Z,55.19
2023-01-06T17:34:37.295Z,55.04
2023-01-06T17:39:40.088Z,54.77
2023-01-06T17:44:39.841Z,54.28
2023-01-06T17:49:37.599Z,54.29
2023-01-06T17:54:49.996Z,54.57
2023-01-06T17:59:55.070Z,54.17
2023-01-06T18:04:52.245Z,54.10
2023-01-06T18:09:52.586Z,53.83
2023-01-06T18:14:50.194Z,53.64
2023-01-06T18:19:47.644Z,53.59
2023-01-06T18:24:47.099Z,53.74
2023-01-06T18:29:44.819Z,54.03
2023-01-06T18:34:49.140Z,53.89
2023-01-06T18:39:53.916Z,54.31
2023-01-06T18:45:03.462Z,54.12
2023-01-06T18:50:33.310Z,54.30
2023-01-06T18:55:36.452Z,54.71
2023-01-06T19:00:39.437Z,54.50
2023-01-06T19:05:37.033Z,54.78
2023-01-06T19:10:34.564Z,54.96
2023-01-06T19:15:32.358Z,55.00
2023-01-06T19:20:34.577Z,55.52
2023-01-06T19:25:40.904Z,55.76
2023-01-06T19:30:44.910Z,55.55
2023-01-06T19:35:50.024Z,55.81
2023-01-06T19:40:50.191Z,55.82
2023-01-06T19:45:50.731Z,56.18
2023-01-06T19:50:49.965Z,56.11
2023-01-06T19:55:48.024Z,56.30
2023-01-06T20:00:47.614Z,56.40
2023-01-06T20:05:45.413Z,56.61
2023-01-06T20:10:42.428Z,56.74
2023-01-06T20:15:40.311Z,56.92
2023-01-06T20:20:37.189Z,56.84
2023-01-06T20:25:34.128Z,56.80
2023-01-06T20:30:30.985Z,57.39
2023-01-06T20:35:28.803Z,57.71
2023-01-06T20:40:25.682Z,57.97
2023-01-06T20:45:22.600Z,57.98
2023-01-06T20:50:20.218Z,58.10
2023-01-06T20:55:17.792Z,58.08
2023-01-06T21:00:15.801Z,58.20
2023-01-06T21:05:13.106Z,58.66
2023-01-06T21:10:10.125Z,58.73
2023-01-06T21:15:09.481Z,58.60
2023-01-06T21:20:08.075Z,58.72
2023-01-06T21:25:05.735Z,59.09
2023-01-06T21:30:02.665Z,59.30
2023-01-06T21:35:00.172Z,59.02
2023-01-06T21:39:57.222Z,59.01
2023-01-06T21:44:54.024Z,59.62
2023-01-06T21:49:50.789Z,58.96
2023-01-06T21:54:48.766Z,59.06
2023-01-06T21:59:45.636Z,59.15
2023-01-06T22:04:42.413Z,59.56
2023-01-06T22:09:41.990Z,59.58
2023-01-06T22:14:39.916Z,60.10
2023-01-06T22:19:37.553Z,60.01
2023-01-06T22:24:35.398Z,59.96
2023-01-06T22:29:32.404Z,60.66
2023-01-06T22:34:30.068Z,60.70
2023-01-06T22:39:27.093Z,60.60
2023-01-06T22:44:23.900Z,61.18
2023-01-06T22:49:20.797Z,60.51
2023-01-06T22:54:18.598Z,60.62
2023-01-06T22:59:15.392Z,60.67
2023-01-06T23:04:14.202Z,60.34
2023-01-06T23:09:11.180Z,60.79
2023-01-06T23:14:10.135Z,61.01
2023-01-06T23:19:07.914Z,60.48
2023-01-06T23:24:06.240Z,60.61
2023-01-06T23:29:03.590Z,60.55
2023-01-06T23:34:04.687Z,60.24
2023-01-06T23:39:03.844Z,60.84
2023-01-06T23:44:01.421Z,60.33
2023-01-06T23:48:58.750Z,60.41
2023-01-06T23:53:56.461Z,60.03
2023-01-06T23:58:57.217Z,60.19
